Terminal Aerodrome Forecast
Issued by NWS

Home | Current Version | Previous Version | Text Only | Print | Product List | Glossary On
Versions: 1 2 3 4 5 6 7 8 9 10 11 12
000
FTPQ31 PGUM 181720
TAFGUM
TAF

TAF
PTKK 181720Z 1818/1918 04009KT P6SM VCSH SCT014
     FM190100 05012KT P6SM VCSH SCT015 SCT030=

USA.gov is the U.S. government's official web portal to all federal, state and local government web resources and services.